Time;durP1;ratioP1;P1;durP2;ratioP2;P2;SDS_P1;SDS_P2;PMS_P1;PMS_P2;Temp;Humidity;BMP_temperature;BMP_pressure;BME280_temperature;BME280_humidity;BME280_pressure;Samples;Min_cycle;Max_cycle;Signal;HPM_P1;HPM_P2
2024/01/29 00:02:00;;;;;;;11.87;8.37;;;;;;;4.08;79.53;102429.09;5039434;28;20057;-67
2024/01/29 00:04:25;;;;;;;12.30;7.97;;;;;;;4.08;79.70;102429.09;5038620;28;20432;-67
2024/01/29 00:06:50;;;;;;;13.13;8.47;;;;;;;4.07;79.76;102422.16;5041273;28;20067;-67
2024/01/29 00:09:17;;;;;;;12.03;8.10;;;;;;;4.09;80.02;102428.16;5039869;28;20021;-67
2024/01/29 00:11:43;;;;;;;11.07;7.97;;;;;;;4.09;79.62;102428.16;5038518;28;20082;-67
2024/01/29 00:14:08;;;;;;;11.60;7.83;;;;;;;4.09;79.81;102423.75;5039628;28;20124;-67
2024/01/29 00:16:34;;;;;;;12.00;7.80;;;;;;;4.08;79.83;102429.09;5040040;28;20048;-67
2024/01/29 00:18:59;;;;;;;13.63;8.10;;;;;;;4.10;79.66;102432.47;5040100;28;20025;-67
2024/01/29 00:21:24;;;;;;;11.20;7.87;;;;;;;4.09;79.73;102431.63;5041961;28;20044;-67
2024/01/29 00:23:50;;;;;;;12.80;8.00;;;;;;;4.11;80.06;102432.41;5039904;28;20028;-67
2024/01/29 00:26:15;;;;;;;12.37;7.80;;;;;;;4.12;80.05;102434.09;5041388;28;20051;-67
2024/01/29 00:28:40;;;;;;;11.20;7.87;;;;;;;4.10;80.02;102446.47;5040639;28;20070;-67
2024/01/29 00:31:07;;;;;;;11.20;7.83;;;;;;;4.12;80.03;102433.25;5041453;28;20087;-67
2024/01/29 00:33:32;;;;;;;10.10;7.47;;;;;;;4.11;80.27;102429.75;5036414;28;20056;-67
2024/01/29 00:35:57;;;;;;;12.27;7.80;;;;;;;4.13;80.30;102424.41;5039025;28;20876;-67
2024/01/29 00:38:23;;;;;;;11.70;7.87;;;;;;;4.14;80.25;102428.72;5038355;28;20025;-67
2024/01/29 00:40:48;;;;;;;12.60;7.87;;;;;;;4.13;80.30;102424.41;5040839;28;20044;-67
2024/01/29 00:43:13;;;;;;;10.63;7.53;;;;;;;4.13;79.88;102419.16;5037327;28;20043;-67
2024/01/29 00:45:39;;;;;;;11.57;7.77;;;;;;;4.11;80.21;102421.88;5038183;28;20616;-67
2024/01/29 00:48:04;;;;;;;14.23;7.70;;;;;;;4.10;79.99;102427.22;5040290;28;20039;-67
2024/01/29 00:50:30;;;;;;;13.03;7.27;;;;;;;4.09;80.04;102429.00;5038726;28;20020;-67
2024/01/29 00:52:55;;;;;;;12.57;7.93;;;;;;;4.09;79.91;102433.41;5042305;28;20067;-67
2024/01/29 00:55:21;;;;;;;12.57;7.97;;;;;;;4.06;80.06;102444.13;5039222;28;20119;-67
2024/01/29 00:57:46;;;;;;;12.87;7.07;;;;;;;4.01;80.19;102442.56;5034270;28;20033;-67
2024/01/29 01:00:12;;;;;;;11.17;7.27;;;;;;;4.02;80.33;102443.41;5040622;28;20100;-67
2024/01/29 01:02:37;;;;;;;12.20;7.50;;;;;;;4.01;80.43;102445.19;5037231;28;20029;-67
2024/01/29 01:05:02;;;;;;;12.27;7.63;;;;;;;4.02;80.36;102446.03;5039836;28;20892;-67
2024/01/29 01:07:28;;;;;;;10.00;7.17;;;;;;;4.04;80.57;102452.06;5038493;28;20108;-67
2024/01/29 01:09:53;;;;;;;10.77;7.63;;;;;;;4.05;80.70;102453.78;5037288;28;20029;-67
2024/01/29 01:12:19;;;;;;;11.13;7.47;;;;;;;4.05;80.24;102456.41;5039035;28;20025;-67
2024/01/29 01:14:44;;;;;;;10.63;7.17;;;;;;;4.03;80.48;102459.09;5040710;28;20504;-67
2024/01/29 01:17:09;;;;;;;12.50;7.83;;;;;;;3.99;80.34;102456.75;5037827;28;20082;-67
2024/01/29 01:19:34;;;;;;;13.30;7.90;;;;;;;3.96;80.50;102456.91;5041499;28;20115;-67
2024/01/29 01:22:00;;;;;;;14.50;7.63;;;;;;;3.91;80.34;102456.34;5041035;28;20036;-67
2024/01/29 01:24:25;;;;;;;11.33;7.90;;;;;;;3.86;80.57;102456.63;5045445;28;20044;-66
2024/01/29 01:26:50;;;;;;;12.07;7.27;;;;;;;3.81;80.46;102460.44;5038608;28;20036;-67
2024/01/29 01:29:17;;;;;;;11.80;7.53;;;;;;;3.78;80.72;102456.22;5032927;28;20455;-67
2024/01/29 01:31:42;;;;;;;13.07;7.63;;;;;;;3.76;80.46;102457.19;5038718;28;20029;-67
2024/01/29 01:34:08;;;;;;;11.20;7.40;;;;;;;3.74;80.63;102452.03;5040159;28;20029;-67
2024/01/29 01:36:33;;;;;;;11.60;7.50;;;;;;;3.72;80.70;102446.03;5036156;28;20040;-67
2024/01/29 01:38:58;;;;;;;13.17;7.60;;;;;;;3.74;80.88;102462.53;5039642;28;20113;-67
2024/01/29 01:41:24;;;;;;;12.20;7.23;;;;;;;3.73;81.03;102458.22;5042267;28;20033;-67
2024/01/29 01:43:49;;;;;;;11.43;6.93;;;;;;;3.72;81.16;102452.13;5035673;28;20037;-67
2024/01/29 01:46:20;;;;;;;16.10;7.90;;;;;;;3.71;80.92;102462.72;5038192;28;20029;-67
2024/01/29 01:48:46;;;;;;;11.80;8.03;;;;;;;3.68;81.28;102457.63;5034477;28;20036;-67
2024/01/29 01:51:12;;;;;;;15.07;7.63;;;;;;;3.66;81.49;102459.50;5038703;28;20140;-67
2024/01/29 01:53:38;;;;;;;10.53;6.90;;;;;;;3.64;81.56;102456.13;5040607;28;20461;-67
2024/01/29 01:56:05;;;;;;;11.20;7.40;;;;;;;3.63;81.44;102454.44;5035110;28;20465;-67
2024/01/29 01:58:32;;;;;;;10.53;7.07;;;;;;;3.64;81.70;102459.59;5036124;28;20104;-67
2024/01/29 02:00:58;;;;;;;12.30;8.40;;;;;;;3.63;81.75;102457.06;5039487;28;20032;-67
2024/01/29 02:03:25;;;;;;;11.27;7.73;;;;;;;3.65;81.93;102455.19;5028486;28;20095;-67
2024/01/29 02:05:51;;;;;;;11.30;7.27;;;;;;;3.65;81.75;102457.81;5032799;28;20592;-67
2024/01/29 02:08:17;;;;;;;11.37;8.20;;;;;;;3.64;82.07;102454.34;5039410;28;20037;-67
2024/01/29 02:10:43;;;;;;;11.73;7.00;;;;;;;3.65;82.26;102460.44;5033734;28;20101;-67
2024/01/29 02:13:15;;;;;;;11.67;7.53;;;;;;;3.64;82.21;102456.97;5030782;28;20095;-67
2024/01/29 02:15:43;;;;;;;14.17;8.07;;;;;;;3.62;82.23;102458.84;5037383;28;20082;-67
2024/01/29 02:18:09;;;;;;;13.30;8.40;;;;;;;3.63;82.00;102462.31;5040324;28;20028;-67
2024/01/29 02:20:35;;;;;;;13.50;7.77;;;;;;;3.62;82.25;102455.38;5041241;28;20033;-67
2024/01/29 02:23:01;;;;;;;12.93;7.70;;;;;;;3.59;82.50;102463.41;5039651;28;20029;-67
2024/01/29 02:25:26;;;;;;;14.37;8.03;;;;;;;3.59;82.55;102466.91;5048391;28;20028;-67
2024/01/29 02:27:52;;;;;;;11.87;7.73;;;;;;;3.58;82.64;102465.19;5037931;28;20460;-67
2024/01/29 02:30:17;;;;;;;10.57;7.57;;;;;;;3.54;82.51;102453.19;5039962;28;20025;-67
2024/01/29 02:32:43;;;;;;;12.27;7.80;;;;;;;3.58;82.54;102459.09;5045177;28;20565;-67
2024/01/29 02:35:08;;;;;;;12.23;7.53;;;;;;;3.56;82.61;102456.56;5036723;28;20022;-67
2024/01/29 02:37:34;;;;;;;11.07;7.90;;;;;;;3.52;82.65;102454.19;5043263;28;20102;-67
2024/01/29 02:39:59;;;;;;;11.93;8.00;;;;;;;3.49;82.89;102446.50;5041761;28;20032;-67
2024/01/29 02:42:25;;;;;;;11.77;7.83;;;;;;;3.49;83.24;102459.63;5040427;28;20059;-67
2024/01/29 02:44:50;;;;;;;11.20;8.20;;;;;;;3.50;83.12;102448.19;5043305;28;20024;-67
2024/01/29 02:47:15;;;;;;;11.37;7.90;;;;;;;3.49;83.33;102449.13;5042808;28;20032;-67
2024/01/29 02:49:43;;;;;;;12.10;7.90;;;;;;;3.50;82.95;102445.56;5046941;28;20596;-67
2024/01/29 02:52:09;;;;;;;11.77;7.73;;;;;;;3.49;83.16;102447.34;5041254;28;20036;-67
2024/01/29 02:54:34;;;;;;;13.50;7.50;;;;;;;3.48;83.37;102452.69;5042800;28;20029;-67
2024/01/29 02:56:59;;;;;;;10.33;7.47;;;;;;;3.46;83.46;102447.47;5041495;28;20563;-67
2024/01/29 02:59:25;;;;;;;12.27;7.70;;;;;;;3.43;83.60;102445.88;5044096;28;20414;-67
2024/01/29 03:01:50;;;;;;;10.60;7.80;;;;;;;3.42;83.26;102443.34;5040851;28;20591;-67
2024/01/29 03:04:15;;;;;;;13.63;8.17;;;;;;;3.39;83.57;102444.34;5041425;28;20042;-67
2024/01/29 03:06:41;;;;;;;12.27;8.17;;;;;;;3.37;83.90;102440.97;5039372;28;20509;-67
2024/01/29 03:09:06;;;;;;;13.10;8.17;;;;;;;3.33;83.43;102446.47;5044582;28;20013;-67
2024/01/29 03:11:31;;;;;;;11.77;8.33;;;;;;;3.30;83.87;102454.53;5040355;28;20017;-67
2024/01/29 03:13:57;;;;;;;12.60;8.37;;;;;;;3.27;83.85;102450.28;5041811;28;20028;-67
2024/01/29 03:16:22;;;;;;;11.47;8.53;;;;;;;3.24;84.39;102447.84;5041922;28;20032;-67
2024/01/29 03:18:48;;;;;;;11.33;8.30;;;;;;;3.26;83.95;102448.59;5043715;28;20036;-67
2024/01/29 03:21:13;;;;;;;12.27;8.20;;;;;;;3.25;84.57;102451.31;5041999;28;20021;-67
2024/01/29 03:23:39;;;;;;;14.87;8.90;;;;;;;3.24;84.29;102460.97;5043076;28;20533;-67
2024/01/29 03:26:04;;;;;;;11.83;8.43;;;;;;;3.24;84.62;102450.47;5039136;28;20494;-67
2024/01/29 03:28:29;;;;;;;13.13;8.73;;;;;;;3.22;84.55;102456.72;5050777;28;20525;-67
2024/01/29 03:30:55;;;;;;;12.70;8.73;;;;;;;3.23;84.44;102456.66;5038693;28;20029;-67
2024/01/29 03:33:20;;;;;;;14.93;8.10;;;;;;;3.23;84.45;102455.78;5038894;28;20108;-67
2024/01/29 03:35:45;;;;;;;12.20;8.20;;;;;;;3.24;84.88;102457.50;5036748;28;20031;-67
2024/01/29 03:38:10;;;;;;;14.03;8.90;;;;;;;3.21;84.53;102466.38;5036186;28;20035;-67
2024/01/29 03:40:36;;;;;;;10.23;7.30;;;;;;;3.09;84.55;102462.63;5042247;28;20025;-67
2024/01/29 03:43:02;;;;;;;12.37;7.77;;;;;;;3.00;84.61;102468.38;5041021;28;20066;-67
2024/01/29 03:45:27;;;;;;;14.90;8.70;;;;;;;3.01;84.85;102458.72;5038699;28;20881;-67
2024/01/29 03:47:52;;;;;;;12.60;8.83;;;;;;;2.99;84.97;102466.69;5039020;28;20115;-67
2024/01/29 03:50:18;;;;;;;12.23;8.50;;;;;;;2.99;85.19;102463.22;5040758;28;20040;-67
2024/01/29 03:52:44;;;;;;;13.00;8.07;;;;;;;3.00;85.24;102452.63;5038052;28;20115;-67
2024/01/29 03:55:10;;;;;;;10.23;7.53;;;;;;;3.01;85.73;102464.81;5036795;28;20136;-67
2024/01/29 03:57:36;;;;;;;14.40;8.30;;;;;;;3.01;85.83;102456.09;5040759;28;20115;-67
2024/01/29 04:00:02;;;;;;;12.10;8.30;;;;;;;3.03;85.91;102473.44;5041636;28;20017;-67
2024/01/29 04:02:27;;;;;;;12.40;7.90;;;;;;;2.99;85.84;102477.19;5038559;28;20039;-67
2024/01/29 04:04:53;;;;;;;11.70;8.40;;;;;;;3.00;85.62;102467.53;5036445;28;20753;-67
2024/01/29 04:07:18;;;;;;;13.40;8.90;;;;;;;3.02;86.14;102470.91;5039976;28;20119;-67
2024/01/29 04:09:43;;;;;;;12.50;8.33;;;;;;;3.03;86.25;102469.97;5038691;28;20025;-67
2024/01/29 04:12:09;;;;;;;13.67;8.73;;;;;;;3.01;86.23;102474.47;5039221;28;20024;-67
2024/01/29 04:14:35;;;;;;;13.90;8.37;;;;;;;3.03;86.33;102472.59;5038991;28;20033;-67
2024/01/29 04:17:04;;;;;;;12.83;8.37;;;;;;;2.97;86.68;102452.78;5039886;28;20053;-67
2024/01/29 04:19:30;;;;;;;12.52;8.15;;;;;;;3.08;86.78;102470.56;5039062;28;20052;-67
2024/01/29 04:21:55;;;;;;;13.20;8.43;;;;;;;3.07;86.69;102474.13;5039210;28;20024;-67
2024/01/29 04:24:20;;;;;;;13.73;8.37;;;;;;;3.05;86.64;102476.84;5038852;28;20029;-67
2024/01/29 04:26:46;;;;;;;12.17;7.80;;;;;;;3.03;86.40;102473.44;5040308;28;20637;-67
2024/01/29 04:29:11;;;;;;;13.50;8.50;;;;;;;3.03;86.33;102475.22;5040529;28;20039;-67
2024/01/29 04:31:36;;;;;;;12.37;8.13;;;;;;;2.95;86.40;102470.41;5036468;28;20028;-67
2024/01/29 04:34:02;;;;;;;11.70;7.53;;;;;;;2.99;86.38;102471.06;5037435;28;20028;-67
2024/01/29 04:36:27;;;;;;;12.07;8.23;;;;;;;2.98;86.69;102469.38;5035972;28;20037;-67
2024/01/29 04:38:53;;;;;;;15.10;8.47;;;;;;;2.93;86.45;102469.63;5038107;28;20532;-67
2024/01/29 04:41:19;;;;;;;12.50;7.83;;;;;;;2.91;87.01;102471.50;5040265;28;20029;-67
2024/01/29 04:43:45;;;;;;;10.57;7.90;;;;;;;2.89;86.97;102469.84;5034425;28;20039;-67
2024/01/29 04:46:11;;;;;;;13.13;8.10;;;;;;;2.89;87.24;102480.34;5035478;28;20029;-67
2024/01/29 04:48:37;;;;;;;13.13;8.07;;;;;;;2.92;87.71;102485.47;5039055;28;20027;-67
2024/01/29 04:51:06;;;;;;;11.33;7.80;;;;;;;2.94;87.72;102486.22;5039283;28;20024;-67
2024/01/29 04:53:33;;;;;;;14.82;8.07;;;;;;;2.94;87.87;102488.84;5040977;28;20072;-67
2024/01/29 04:55:58;;;;;;;10.67;7.87;;;;;;;2.95;88.20;102495.78;5033686;28;20078;-67
2024/01/29 04:58:23;;;;;;;12.63;7.63;;;;;;;2.89;87.85;102483.84;5037942;28;20028;-67
2024/01/29 05:00:49;;;;;;;11.60;7.93;;;;;;;2.86;87.68;102483.13;5036281;28;20036;-67
2024/01/29 05:03:14;;;;;;;14.80;8.33;;;;;;;2.80;87.77;102481.69;5041181;28;20036;-67
2024/01/29 05:05:39;;;;;;;12.00;8.10;;;;;;;2.77;87.73;102484.47;5039728;28;20128;-67
2024/01/29 05:08:05;;;;;;;14.07;7.93;;;;;;;2.75;87.89;102479.31;5039441;28;20106;-67
2024/01/29 05:10:30;;;;;;;11.57;8.00;;;;;;;2.74;88.27;102474.97;5040984;28;20032;-67
2024/01/29 05:12:56;;;;;;;12.53;8.37;;;;;;;2.76;88.69;102474.91;5040313;28;20452;-67
2024/01/29 05:15:21;;;;;;;12.23;7.63;;;;;;;2.77;88.82;102480.06;5040016;28;20037;-67
2024/01/29 05:17:47;;;;;;;11.80;8.10;;;;;;;2.80;88.85;102466.78;5039433;28;20036;-67
2024/01/29 05:20:12;;;;;;;14.57;8.87;;;;;;;2.79;89.18;102477.38;5041311;28;20040;-67
2024/01/29 05:22:37;;;;;;;11.57;8.27;;;;;;;2.82;88.95;102473.72;5040510;28;20124;-67
2024/01/29 05:25:03;;;;;;;12.93;7.90;;;;;;;2.79;89.25;102467.72;5041335;28;20025;-67
2024/01/29 05:27:28;;;;;;;13.77;8.40;;;;;;;2.78;89.31;102465.19;5038598;28;20508;-67
2024/01/29 05:29:53;;;;;;;15.57;8.30;;;;;;;2.77;89.71;102471.34;5040830;28;20033;-67
2024/01/29 05:32:19;;;;;;;14.13;8.33;;;;;;;2.77;89.54;102464.34;5042210;28;20116;-67
2024/01/29 05:34:45;;;;;;;13.50;8.50;;;;;;;2.75;89.81;102467.97;5041497;28;20033;-67
2024/01/29 05:37:10;;;;;;;12.30;8.43;;;;;;;2.74;89.95;102477.59;5038977;28;20104;-67
2024/01/29 05:39:36;;;;;;;13.30;8.37;;;;;;;2.76;90.42;102475.75;5038172;28;20091;-67
2024/01/29 05:42:01;;;;;;;13.37;8.87;;;;;;;2.78;90.42;102475.66;5038858;28;20533;-67
2024/01/29 05:44:26;;;;;;;11.27;8.07;;;;;;;2.83;90.85;102472.81;5040690;28;20025;-68
2024/01/29 05:46:52;;;;;;;11.77;7.70;;;;;;;2.84;91.17;102466.63;5041338;28;20265;-67
2024/01/29 05:49:18;;;;;;;11.03;8.10;;;;;;;2.84;91.47;102482.38;5041499;28;20032;-67
2024/01/29 05:51:44;;;;;;;13.13;7.70;;;;;;;2.85;91.45;102484.06;5043009;28;20127;-67
2024/01/29 05:54:09;;;;;;;12.10;8.40;;;;;;;2.83;91.61;102485.91;5039018;28;20518;-67
2024/01/29 05:56:34;;;;;;;13.57;8.10;;;;;;;2.87;91.57;102490.06;5040285;28;20529;-67
2024/01/29 05:58:59;;;;;;;13.33;7.87;;;;;;;2.87;91.94;102487.44;5039181;28;20649;-67
2024/01/29 06:01:25;;;;;;;14.50;8.30;;;;;;;2.90;91.78;102493.41;5038783;28;20405;-67
2024/01/29 06:03:50;;;;;;;12.23;8.07;;;;;;;2.92;92.07;102486.31;5042351;28;20025;-67
2024/01/29 06:06:15;;;;;;;12.07;7.70;;;;;;;2.93;92.09;102495.03;5040272;28;20831;-67
2024/01/29 06:08:41;;;;;;;12.93;7.93;;;;;;;2.93;92.05;102488.00;5044321;28;20546;-67
2024/01/29 06:11:06;;;;;;;10.83;7.90;;;;;;;2.88;92.28;102484.75;5040426;28;20037;-67
2024/01/29 06:13:31;;;;;;;9.87;7.77;;;;;;;2.93;92.31;102489.78;5045211;28;20075;-67
2024/01/29 06:15:58;;;;;;;11.87;8.40;;;;;;;2.93;92.52;102495.03;5036447;28;20029;-67
2024/01/29 06:18:23;;;;;;;16.30;8.50;;;;;;;2.90;92.50;102493.41;5043587;28;20064;-67
2024/01/29 06:20:49;;;;;;;13.47;8.60;;;;;;;2.93;92.63;102487.16;5044822;28;20063;-67
2024/01/29 06:23:14;;;;;;;12.03;8.40;;;;;;;2.94;93.01;102494.94;5044892;28;20055;-67
2024/01/29 06:25:40;;;;;;;12.07;7.67;;;;;;;2.94;92.96;102492.31;5046216;28;20029;-68
2024/01/29 06:28:06;;;;;;;13.33;8.30;;;;;;;3.01;93.27;102496.31;5043994;28;20067;-67
2024/01/29 06:30:33;;;;;;;11.70;7.33;;;;;;;3.06;93.41;102511.81;5046097;28;20028;-67
2024/01/29 06:32:58;;;;;;;10.77;7.57;;;;;;;3.13;93.69;102513.16;5052910;28;20032;-68
2024/01/29 06:35:24;;;;;;;14.20;8.10;;;;;;;3.14;93.38;102512.25;5039906;28;20029;-68
2024/01/29 06:37:49;;;;;;;10.67;7.40;;;;;;;3.22;93.79;102522.34;5041092;28;20488;-68
2024/01/29 06:40:15;;;;;;;11.27;7.50;;;;;;;3.26;93.35;102518.63;5045384;28;20029;-68
2024/01/29 06:42:40;;;;;;;10.93;7.40;;;;;;;3.23;93.34;102511.78;5042357;28;20039;-68
2024/01/29 06:45:07;;;;;;;14.13;8.40;;;;;;;3.22;93.36;102509.22;5042804;28;20442;-68
2024/01/29 06:47:33;;;;;;;11.10;7.53;;;;;;;3.21;93.27;102513.63;5039130;28;20039;-68
2024/01/29 06:49:58;;;;;;;14.60;7.47;;;;;;;3.20;93.29;102511.09;5041438;28;20036;-68
2024/01/29 06:52:24;;;;;;;11.80;8.07;;;;;;;3.19;93.40;102510.25;5037024;28;20034;-69
2024/01/29 06:54:51;;;;;;;13.03;8.60;;;;;;;3.23;93.47;102516.19;5039338;28;20029;-68
2024/01/29 06:57:16;;;;;;;11.50;8.50;;;;;;;3.25;93.68;102514.31;5040342;28;20037;-68
2024/01/29 06:59:42;;;;;;;15.27;9.07;;;;;;;3.31;93.71;102516.59;5038603;28;20037;-68
2024/01/29 07:02:08;;;;;;;15.07;8.67;;;;;;;3.27;93.47;102510.69;5039740;28;20029;-68
2024/01/29 07:04:33;;;;;;;11.40;8.20;;;;;;;3.40;93.79;102516.09;5040784;28;20044;-68
2024/01/29 07:06:59;;;;;;;12.80;8.03;;;;;;;3.42;93.75;102528.22;5041321;28;20025;-68
2024/01/29 07:09:24;;;;;;;11.67;7.90;;;;;;;3.43;93.51;102529.91;5040825;28;20825;-69
2024/01/29 07:11:49;;;;;;;13.03;7.87;;;;;;;3.51;93.64;102528.66;5045242;28;20033;-68
2024/01/29 07:14:15;;;;;;;14.57;8.60;;;;;;;3.51;93.51;102531.28;5035159;28;20091;-68
2024/01/29 07:16:40;;;;;;;12.77;8.43;;;;;;;3.55;93.76;102536.28;5039911;28;22317;-68
2024/01/29 07:19:06;;;;;;;12.97;8.10;;;;;;;3.57;93.90;102541.47;5037820;28;20508;-68
2024/01/29 07:21:31;;;;;;;12.23;7.73;;;;;;;3.62;93.85;102539.44;5034080;28;20043;-68
2024/01/29 07:23:56;;;;;;;12.27;7.70;;;;;;;3.64;93.64;102545.44;5033727;28;20107;-68
2024/01/29 07:26:22;;;;;;;11.47;7.80;;;;;;;3.66;93.54;102547.06;5039883;28;20064;-68
2024/01/29 07:28:47;;;;;;;13.57;7.80;;;;;;;3.72;93.67;102551.97;5039780;28;20025;-68
2024/01/29 07:31:12;;;;;;;15.00;8.37;;;;;;;3.75;93.41;102553.56;5038117;28;20032;-68
2024/01/29 07:33:38;;;;;;;10.67;7.67;;;;;;;3.73;93.31;102547.56;5042087;28;20041;-68
2024/01/29 07:36:03;;;;;;;12.90;8.30;;;;;;;3.74;93.33;102557.13;5038060;28;20039;-68
2024/01/29 07:38:29;;;;;;;11.20;7.77;;;;;;;3.77;93.47;102549.09;5039205;28;20466;-68
2024/01/29 07:40:55;;;;;;;12.60;8.17;;;;;;;3.77;93.27;102548.25;5042435;28;20028;-68
2024/01/29 07:43:20;;;;;;;12.73;7.83;;;;;;;3.77;93.54;102564.03;5036274;28;20569;-68
2024/01/29 07:45:45;;;;;;;13.37;8.10;;;;;;;3.84;93.35;102562.75;5039140;28;20052;-68
2024/01/29 07:48:11;;;;;;;10.20;7.63;;;;;;;3.88;93.66;102566.91;5041132;28;20032;-68
2024/01/29 07:50:36;;;;;;;13.33;8.10;;;;;;;3.89;93.01;102560.72;5032850;28;20032;-69
2024/01/29 07:53:01;;;;;;;14.77;8.00;;;;;;;3.89;93.31;102565.97;5034764;28;20096;-68
2024/01/29 07:55:27;;;;;;;12.13;7.93;;;;;;;3.93;93.09;102565.72;5034791;28;20036;-68
2024/01/29 07:57:52;;;;;;;12.07;8.20;;;;;;;3.98;93.54;102574.19;5043397;28;20025;-68
2024/01/29 08:00:18;;;;;;;10.40;7.67;;;;;;;4.04;93.21;102570.34;5043706;28;20115;-68
2024/01/29 08:02:43;;;;;;;11.77;7.63;;;;;;;4.07;92.90;102577.25;5040194;28;20556;-68
2024/01/29 08:05:09;;;;;;;13.23;8.07;;;;;;;4.08;93.21;102571.06;5043313;28;20024;-68
2024/01/29 08:07:34;;;;;;;14.33;8.40;;;;;;;4.10;93.08;102570.03;5036183;28;20460;-68
2024/01/29 08:10:01;;;;;;;10.07;7.60;;;;;;;4.11;93.07;102573.50;5043752;28;20099;-68
2024/01/29 08:12:27;;;;;;;11.37;7.73;;;;;;;4.13;92.58;102571.63;5041105;28;20047;-68
2024/01/29 08:14:52;;;;;;;13.67;9.33;;;;;;;4.19;93.04;102579.19;5044255;28;20490;-68
2024/01/29 08:17:17;;;;;;;12.83;8.13;;;;;;;4.24;93.24;102587.66;5040974;28;20111;-68
2024/01/29 08:19:43;;;;;;;13.63;8.00;;;;;;;4.31;93.03;102589.00;5036217;28;20037;-68
2024/01/29 08:22:08;;;;;;;10.90;7.87;;;;;;;4.35;93.04;102587.91;5041089;28;20024;-68
2024/01/29 08:24:34;;;;;;;10.50;7.90;;;;;;;4.38;93.12;102584.25;5040620;28;20034;-68
2024/01/29 08:26:59;;;;;;;10.60;7.63;;;;;;;4.43;92.58;102596.19;5042357;28;20029;-68
2024/01/29 08:29:25;;;;;;;13.53;8.17;;;;;;;4.45;92.90;102590.84;5039037;28;20394;-68
2024/01/29 08:31:51;;;;;;;10.50;7.50;;;;;;;4.47;92.91;102592.44;5042448;28;20533;-68
2024/01/29 08:34:17;;;;;;;11.90;8.07;;;;;;;4.47;92.58;102596.88;5047023;28;20048;-68
2024/01/29 08:36:42;;;;;;;10.63;7.70;;;;;;;4.51;92.54;102595.75;5037017;28;20037;-68
2024/01/29 08:39:07;;;;;;;13.03;7.90;;;;;;;4.54;92.37;102587.69;5041576;28;20036;-68
2024/01/29 08:41:33;;;;;;;11.93;8.17;;;;;;;4.58;92.69;102591.81;5035654;28;20028;-68
2024/01/29 08:43:58;;;;;;;12.57;7.83;;;;;;;4.63;92.58;102587.16;5036947;28;20588;-68
2024/01/29 08:46:23;;;;;;;10.50;7.80;;;;;;;4.72;92.40;102585.78;5036424;28;20029;-69
2024/01/29 08:48:49;;;;;;;12.00;7.90;;;;;;;4.81;92.75;102585.22;5049304;28;20031;-68
2024/01/29 08:51:14;;;;;;;11.90;7.90;;;;;;;4.87;92.23;102580.44;5042664;28;20090;-68
2024/01/29 08:53:39;;;;;;;14.53;8.03;;;;;;;4.93;92.08;102584.53;5040159;28;20024;-68
2024/01/29 08:56:07;;;;;;;12.23;7.90;;;;;;;4.98;91.82;102574.56;5040793;28;20029;-68
2024/01/29 08:58:32;;;;;;;11.20;8.20;;;;;;;5.05;91.53;102573.25;5036147;28;20029;-68
2024/01/29 09:00:58;;;;;;;14.40;8.30;;;;;;;5.09;91.41;102580.00;5035273;28;20041;-68
2024/01/29 09:03:24;;;;;;;11.30;7.63;;;;;;;5.14;91.24;102571.84;5035379;28;20470;-68
2024/01/29 09:05:50;;;;;;;10.90;8.33;;;;;;;5.16;91.56;102568.16;5031608;28;20024;-68
2024/01/29 09:08:15;;;;;;;11.63;7.83;;;;;;;5.21;91.20;102570.53;5041439;28;20055;-68
2024/01/29 09:10:41;;;;;;;12.20;8.30;;;;;;;5.22;91.20;102574.88;5038209;28;20052;-68
2024/01/29 09:13:06;;;;;;;11.23;8.30;;;;;;;5.25;91.00;102578.16;5041994;28;20124;-68
2024/01/29 09:15:32;;;;;;;12.77;7.93;;;;;;;5.28;90.70;102577.97;5038485;28;20032;-68
2024/01/29 09:17:57;;;;;;;10.80;8.17;;;;;;;5.32;90.94;102580.41;5035979;28;20039;-68
2024/01/29 09:20:22;;;;;;;12.70;8.20;;;;;;;5.36;90.60;102580.13;5042778;28;20020;-68
2024/01/29 09:22:48;;;;;;;12.77;8.30;;;;;;;5.42;90.85;102581.53;5036282;28;20032;-68
2024/01/29 09:25:13;;;;;;;11.07;8.30;;;;;;;5.45;90.40;102582.19;5040515;28;20041;-68
2024/01/29 09:27:39;;;;;;;13.63;8.63;;;;;;;5.52;90.21;102586.16;5037258;28;20039;-68
2024/01/29 09:30:05;;;;;;;12.20;8.00;;;;;;;5.56;90.54;102592.94;5033703;28;20040;-68
2024/01/29 09:32:31;;;;;;;14.50;8.73;;;;;;;5.63;90.02;102585.47;5036735;28;20032;-69
2024/01/29 09:34:56;;;;;;;11.17;8.80;;;;;;;5.71;89.84;102591.13;5035534;28;20039;-68
2024/01/29 09:37:21;;;;;;;11.23;8.60;;;;;;;5.79;90.17;102585.38;5036728;28;20041;-66
2024/01/29 09:39:47;;;;;;;14.80;8.63;;;;;;;5.88;89.62;102590.91;5038114;28;20035;-66
2024/01/29 09:42:20;;;;;;;12.67;8.13;;;;;;;5.94;89.65;102596.78;5046891;28;20108;-66
2024/01/29 09:44:50;;;;;;;11.83;8.43;;;;;;;6.02;89.19;102603.25;5036790;28;20048;-66
2024/01/29 09:47:18;;;;;;;11.23;7.95;;;;;;;6.08;89.04;102597.59;5043030;28;20021;-66
2024/01/29 09:49:44;;;;;;;12.53;8.37;;;;;;;6.16;88.97;102599.72;5046067;28;20091;-66
2024/01/29 09:52:13;;;;;;;13.50;9.07;;;;;;;6.21;89.02;102602.91;5037277;28;20028;-66
2024/01/29 09:54:42;;;;;;;10.68;7.90;;;;;;;6.26;89.12;102595.53;5041336;28;20035;-66
2024/01/29 09:57:12;;;;;;;16.35;8.48;;;;;;;6.34;88.71;102595.88;5040991;28;20330;-66
2024/01/29 09:59:39;;;;;;;11.53;8.17;;;;;;;6.43;88.89;102603.22;5042389;28;20043;-66
2024/01/29 10:02:04;;;;;;;12.63;9.13;;;;;;;6.56;88.63;102608.53;5046163;28;20041;-66
2024/01/29 10:04:30;;;;;;;13.30;8.77;;;;;;;6.63;88.60;102611.59;5043557;28;20147;-66
2024/01/29 10:06:55;;;;;;;11.95;8.40;;;;;;;6.71;88.32;102611.97;5040718;28;20036;-66
2024/01/29 10:09:21;;;;;;;12.90;8.67;;;;;;;6.80;88.31;102611.34;5046485;28;20055;-66
2024/01/29 10:11:48;;;;;;;13.40;8.68;;;;;;;6.90;88.38;102612.41;5046711;28;20017;-66
2024/01/29 10:14:13;;;;;;;13.88;8.73;;;;;;;6.99;88.02;102611.81;5042882;28;20029;-66
2024/01/29 10:16:39;;;;;;;11.17;8.50;;;;;;;7.01;87.94;102611.69;5045153;28;20725;-66
2024/01/29 10:19:05;;;;;;;13.53;8.80;;;;;;;7.13;87.72;102618.78;5036770;28;20033;-66
2024/01/29 10:21:40;;;;;;;11.18;8.38;;;;;;;7.20;87.56;102625.31;5041396;28;20033;-66
2024/01/29 10:24:20;;;;;;;13.67;8.60;;;;;;;7.26;87.13;102618.81;5032941;28;20051;-66
2024/01/29 10:26:46;;;;;;;12.40;8.40;;;;;;;7.31;86.88;102619.31;5036653;28;21482;-67
2024/01/29 10:29:11;;;;;;;11.25;8.50;;;;;;;7.40;86.92;102624.81;5034220;28;20025;-66
2024/01/29 10:31:38;;;;;;;13.05;8.70;;;;;;;7.49;86.44;102622.47;5035067;28;20824;-66
2024/01/29 10:34:04;;;;;;;12.75;8.05;;;;;;;7.56;86.48;102629.91;5039241;28;20027;-66
2024/01/29 10:36:30;;;;;;;13.43;8.60;;;;;;;7.66;86.31;102622.16;5035742;28;20823;-66
2024/01/29 10:38:58;;;;;;;12.48;8.73;;;;;;;7.77;86.25;102615.16;5040794;28;20037;-66
2024/01/29 10:41:24;;;;;;;16.40;9.02;;;;;;;7.86;85.67;102628.69;5040024;28;20035;-66
2024/01/29 10:43:53;;;;;;;12.85;9.15;;;;;;;7.94;85.57;102616.59;5044100;28;20100;-66
2024/01/29 10:46:20;;;;;;;12.40;9.13;;;;;;;8.01;85.66;102624.94;5044839;28;20039;-66
2024/01/29 10:48:46;;;;;;;15.15;9.48;;;;;;;8.09;85.27;102625.22;5042698;28;20061;-66
2024/01/29 10:51:13;;;;;;;12.45;8.55;;;;;;;8.17;85.44;102627.34;5035949;28;20181;-66
2024/01/29 10:53:40;;;;;;;10.90;8.73;;;;;;;8.22;84.59;102625.19;5035918;28;20044;-66
2024/01/29 10:56:06;;;;;;;17.95;9.75;;;;;;;8.30;84.44;102639.56;5038363;28;20052;-66
2024/01/29 10:58:32;;;;;;;14.80;9.55;;;;;;;8.37;84.36;102630.22;5029558;28;20028;-66
2024/01/29 11:00:58;;;;;;;13.63;9.13;;;;;;;8.44;84.08;102635.09;5038906;28;20024;-66
2024/01/29 11:03:25;;;;;;;12.35;9.48;;;;;;;8.51;83.89;102628.38;5040389;28;20043;-66
2024/01/29 11:05:55;;;;;;;15.30;9.48;;;;;;;8.54;83.88;102631.66;5041775;28;20124;-66
2024/01/29 11:08:26;;;;;;;14.63;9.55;;;;;;;8.59;83.62;102629.50;5036065;28;20025;-67
2024/01/29 11:10:51;;;;;;;12.50;9.15;;;;;;;8.68;83.90;102622.69;5043468;28;20119;-66
2024/01/29 11:13:19;;;;;;;13.90;9.35;;;;;;;8.78;83.69;102629.00;5032807;28;20028;-66
2024/01/29 11:15:44;;;;;;;14.45;10.10;;;;;;;8.87;83.94;102630.94;5040841;28;20860;-66
2024/01/29 11:18:10;;;;;;;15.93;10.00;;;;;;;8.98;83.72;102630.16;5040063;28;20033;-66